createdAt,value
2019-04-20T00:00:54.193Z,46.90
2019-04-20T00:03:23.678Z,46.93
2019-04-20T00:05:55.200Z,47.05
2019-04-20T00:08:29.637Z,47.36
2019-04-20T00:11:07.411Z,47.33
2019-04-20T00:13:43.539Z,47.45
2019-04-20T00:16:04.101Z,47.85
2019-04-20T00:18:43.015Z,48.27
2019-04-20T00:21:25.172Z,48.03
2019-04-20T00:24:01.028Z,48.21
2019-04-20T00:27:01.944Z,48.30
2019-04-20T00:29:22.708Z,48.01
2019-04-20T00:31:49.221Z,48.34
2019-04-20T00:34:16.904Z,48.93
2019-04-20T00:36:41.235Z,48.55
2019-04-20T00:39:14.998Z,48.70
2019-04-20T00:41:51.957Z,48.79
2019-04-20T00:44:24.234Z,49.00
2019-04-20T00:47:01.976Z,49.29
2019-04-20T00:49:36.059Z,49.08
2019-04-20T00:52:23.711Z,49.32
2019-04-20T00:54:26.804Z,49.29
2019-04-20T00:57:09.349Z,49.50
2019-04-20T00:59:51.866Z,49.42
2019-04-20T01:02:18.110Z,49.62
2019-04-20T01:04:55.096Z,49.71
2019-04-20T01:07:31.158Z,49.48
2019-04-20T01:10:04.991Z,49.65
2019-04-20T01:12:38.403Z,50.15
2019-04-20T01:15:11.876Z,49.92
2019-04-20T01:17:44.502Z,50.30
2019-04-20T01:20:15.828Z,50.65
2019-04-20T01:22:57.250Z,50.92
2019-04-20T01:25:28.329Z,51.34
2019-04-20T01:28:10.273Z,51.79
2019-04-20T01:30:33.923Z,52.11
2019-04-20T01:33:12.745Z,51.70
2019-04-20T01:35:46.100Z,52.03
2019-04-20T01:38:23.165Z,51.95
2019-04-20T01:40:36.105Z,52.06
2019-04-20T01:43:07.962Z,52.35
2019-04-20T01:45:41.974Z,52.88
2019-04-20T01:48:15.072Z,53.49
2019-04-20T01:50:54.785Z,53.31
2019-04-20T01:53:37.740Z,53.40
2019-04-20T01:56:07.257Z,54.23
2019-04-20T01:58:39.481Z,54.24
2019-04-20T02:01:21.112Z,55.14
2019-04-20T02:04:00.313Z,54.54
2019-04-20T02:06:41.871Z,54.75
2019-04-20T02:09:13.626Z,54.61
2019-04-20T02:11:43.044Z,54.70
2019-04-20T02:14:13.772Z,54.46
2019-04-20T02:16:49.618Z,54.75
2019-04-20T02:19:30.523Z,54.52
2019-04-20T02:22:04.065Z,54.87
2019-04-20T02:24:21.806Z,56.07
2019-04-20T02:26:53.583Z,55.48
2019-04-20T02:29:46.170Z,55.29
2019-04-20T02:32:43.290Z,55.46
2019-04-20T02:34:59.822Z,55.45
2019-04-20T02:37:55.142Z,55.71
2019-04-20T02:40:12.398Z,55.71
2019-04-20T02:45:24.041Z,55.77
2019-04-20T02:47:47.384Z,55.80
2019-04-20T02:55:26.820Z,57.22
2019-04-20T02:58:10.978Z,57.25
2019-04-20T03:00:24.088Z,56.80
2019-04-20T03:02:42.879Z,57.06
2019-04-20T03:05:15.196Z,57.18
2019-04-20T03:07:57.432Z,57.69
2019-04-20T03:10:39.383Z,57.72
2019-04-20T03:13:04.052Z,58.25
2019-04-20T03:15:36.430Z,58.44
2019-04-20T03:18:08.853Z,58.66
2019-04-20T03:20:42.620Z,58.64
2019-04-20T03:23:26.015Z,58.70
2019-04-20T03:25:55.522Z,58.78
2019-04-20T03:28:26.235Z,58.81
2019-04-20T03:32:04.324Z,58.61
2019-04-20T03:34:08.084Z,59.44
2019-04-20T03:36:25.303Z,59.34
2019-04-20T03:38:47.907Z,59.37
2019-04-20T03:41:12.093Z,59.48
2019-04-20T03:43:33.028Z,59.79
2019-04-20T03:46:08.434Z,60.01
2019-04-20T03:48:54.667Z,59.93
2019-04-20T03:51:35.913Z,60.43
2019-04-20T03:54:08.510Z,60.16
2019-04-20T03:56:49.718Z,60.21
2019-04-20T03:59:43.703Z,60.38
2019-04-20T04:02:41.175Z,60.63
2019-04-20T04:05:01.813Z,60.82
2019-04-20T04:07:22.584Z,61.15
2019-04-20T04:10:04.659Z,61.48
2019-04-20T04:12:56.816Z,61.61
2019-04-20T04:15:27.812Z,61.92
2019-04-20T04:18:06.039Z,62.18
2019-04-20T04:20:38.732Z,62.84
2019-04-20T04:23:19.028Z,63.00
2019-04-20T04:25:55.596Z,63.79
2019-04-20T04:28:27.340Z,64.34
2019-04-20T04:31:05.155Z,64.73
2019-04-20T04:33:53.250Z,64.52
2019-04-20T04:36:00.497Z,64.39
2019-04-20T04:38:46.031Z,65.47
2019-04-20T04:41:17.064Z,65.11
2019-04-20T04:43:40.162Z,65.46
2019-04-20T04:45:57.453Z,64.70
2019-04-20T04:48:35.085Z,65.34
2019-04-20T04:51:07.218Z,64.50
2019-04-20T04:53:46.681Z,64.64
2019-04-20T04:56:10.848Z,64.17
2019-04-20T04:58:38.497Z,64.41
2019-04-20T05:01:15.894Z,64.02
2019-04-20T05:04:12.294Z,63.99
2019-04-20T05:06:45.006Z,63.76
2019-04-20T05:08:53.304Z,63.21
2019-04-20T05:11:21.740Z,63.34
2019-04-20T05:13:58.544Z,64.87
2019-04-20T05:16:46.294Z,64.66
2019-04-20T05:19:19.615Z,63.32
2019-04-20T05:22:01.314Z,63.41
2019-04-20T05:24:34.968Z,63.68
2019-04-20T05:27:31.825Z,63.27
2019-04-20T05:29:41.365Z,63.32
2019-04-20T05:32:17.989Z,62.66
2019-04-20T05:35:10.960Z,62.35
2019-04-20T05:37:47.615Z,62.10
2019-04-20T05:40:11.877Z,62.22
2019-04-20T05:42:48.503Z,62.01
2019-04-20T05:45:18.244Z,62.13
2019-04-20T05:47:47.746Z,62.09
2019-04-20T05:50:23.394Z,61.76
2019-04-20T05:53:04.797Z,61.80
2019-04-20T05:55:26.678Z,62.42
2019-04-20T05:58:06.988Z,62.30
2019-04-20T06:00:37.434Z,62.03
2019-04-20T06:03:05.608Z,62.17
2019-04-20T06:05:45.898Z,61.28
2019-04-20T06:08:15.341Z,62.91
2019-04-20T06:10:45.509Z,63.81
2019-04-20T06:13:17.536Z,62.93
2019-04-20T06:16:13.887Z,63.30
2019-04-20T06:18:44.287Z,62.91
2019-04-20T06:21:32.555Z,63.57
2019-04-20T06:24:06.552Z,62.72
2019-04-20T06:26:58.037Z,63.70
2019-04-20T06:29:20.532Z,63.56
2019-04-20T06:31:53.473Z,63.72
2019-04-20T06:37:05.785Z,63.26
2019-04-20T06:42:18.019Z,62.97
2019-04-20T06:47:21.261Z,62.47
2019-04-20T06:49:40.614Z,62.67
2019-04-20T06:52:25.905Z,62.54
2019-04-20T06:55:03.419Z,62.14
2019-04-20T07:02:44.722Z,62.37
2019-04-20T07:05:18.991Z,61.89
2019-04-20T07:07:54.677Z,61.70
2019-04-20T07:10:28.480Z,62.05
2019-04-20T07:12:51.792Z,61.82
2019-04-20T07:15:25.527Z,62.11
2019-04-20T07:18:01.773Z,62.20
2019-04-20T07:20:51.656Z,61.72
2019-04-20T07:23:23.831Z,61.76
2019-04-20T07:25:49.028Z,60.74
2019-04-20T07:28:29.203Z,61.21
2019-04-20T07:30:55.272Z,61.04
2019-04-20T07:33:30.084Z,61.04
2019-04-20T07:35:55.885Z,60.52
2019-04-20T07:38:38.129Z,60.36
2019-04-20T07:41:01.511Z,60.34
2019-04-20T07:43:48.377Z,60.19
2019-04-20T07:46:09.317Z,59.88
2019-04-20T07:48:49.179Z,59.70
2019-04-20T07:51:08.924Z,59.26
2019-04-20T07:53:50.231Z,59.32
2019-04-20T07:56:35.991Z,58.90
2019-04-20T07:58:49.232Z,58.62
2019-04-20T08:02:13.710Z,58.58
2019-04-20T08:04:56.617Z,58.69
2019-04-20T08:07:17.886Z,58.44
2019-04-20T08:09:55.705Z,58.08
2019-04-20T08:12:51.509Z,58.07
2019-04-20T08:15:29.739Z,57.86
2019-04-20T08:20:21.989Z,57.66
2019-04-20T08:23:01.840Z,57.29
2019-04-20T08:25:20.223Z,57.42
2019-04-20T08:27:59.052Z,57.19
2019-04-20T08:31:06.326Z,56.95
2019-04-20T08:33:55.260Z,56.90
2019-04-20T08:36:22.837Z,57.03
2019-04-20T08:39:16.599Z,56.71
2019-04-20T08:41:20.703Z,56.42
2019-04-20T08:43:59.046Z,56.46
2019-04-20T08:46:34.409Z,56.41
2019-04-20T08:49:02.959Z,55.51
2019-04-20T08:51:43.732Z,54.94
2019-04-20T08:54:08.407Z,55.01
2019-04-20T08:56:31.991Z,55.26
2019-04-20T08:58:54.978Z,54.99
2019-04-20T09:01:30.343Z,55.13
2019-04-20T09:04:06.640Z,54.86
2019-04-20T09:06:45.674Z,54.81
2019-04-20T09:09:33.495Z,55.02
2019-04-20T09:11:54.332Z,54.55
2019-04-20T09:14:20.876Z,54.12
2019-04-20T09:16:59.684Z,53.45
2019-04-20T09:19:36.674Z,51.74
2019-04-20T09:22:28.033Z,51.91
2019-04-20T09:25:25.053Z,51.77
2019-04-20T09:27:29.464Z,51.93
2019-04-20T09:30:17.716Z,51.95
2019-04-20T09:32:39.555Z,51.92
2019-04-20T09:35:19.483Z,51.98
2019-04-20T09:37:53.124Z,51.71
2019-04-20T09:40:34.943Z,51.32
2019-04-20T09:42:51.074Z,50.75
2019-04-20T09:45:32.980Z,51.04
2019-04-20T09:48:00.217Z,51.30
2019-04-20T09:50:47.581Z,49.01
2019-04-20T09:53:19.746Z,49.48
2019-04-20T09:55:59.207Z,49.10
2019-04-20T09:58:21.349Z,48.82
2019-04-20T10:01:00.712Z,47.25
2019-04-20T10:03:16.500Z,47.89
2019-04-20T10:05:47.657Z,46.69
2019-04-20T10:08:19.742Z,46.72
2019-04-20T10:10:52.899Z,45.61
2019-04-20T10:13:25.242Z,45.68
2019-04-20T10:15:57.527Z,46.11
2019-04-20T10:18:28.501Z,45.16
2019-04-20T10:20:59.906Z,45.04
2019-04-20T10:23:30.530Z,44.25
2019-04-20T10:26:02.968Z,44.57
2019-04-20T10:28:33.915Z,43.70
2019-04-20T10:31:06.394Z,44.09
2019-04-20T10:33:39.540Z,42.50
2019-04-20T10:36:12.129Z,40.12
2019-04-20T10:38:44.316Z,39.09
2019-04-20T10:41:28.441Z,39.60
2019-04-20T10:43:48.942Z,38.44
2019-04-20T10:46:20.720Z,40.03
2019-04-20T10:48:53.324Z,40.75
2019-04-20T10:51:23.980Z,39.48
2019-04-20T10:54:00.449Z,38.85
2019-04-20T10:56:29.579Z,39.09
2019-04-20T10:59:01.443Z,38.75
2019-04-20T11:01:33.677Z,38.43
2019-04-20T11:04:05.045Z,37.22
2019-04-20T11:06:36.513Z,36.83
2019-04-20T11:09:08.923Z,37.34
2019-04-20T11:11:40.704Z,36.17
2019-04-20T11:14:16.304Z,37.74
2019-04-20T11:16:44.495Z,37.50
2019-04-20T11:19:15.732Z,37.53
2019-04-20T11:21:46.596Z,37.43
2019-04-20T11:24:18.121Z,37.66
2019-04-20T11:26:49.826Z,36.56
2019-04-20T11:29:22.012Z,36.84
2019-04-20T11:31:56.016Z,37.27
2019-04-20T11:34:29.895Z,37.40
2019-04-20T11:36:59.142Z,37.20
2019-04-20T11:39:30.203Z,37.48
2019-04-20T11:42:01.579Z,37.04
2019-04-20T11:44:33.314Z,37.18
2019-04-20T11:47:06.311Z,37.67
2019-04-20T11:49:37.528Z,37.50
2019-04-20T11:52:09.688Z,37.57
2019-04-20T11:54:42.117Z,36.16
2019-04-20T11:57:13.323Z,36.39
2019-04-20T11:59:45.336Z,36.69
2019-04-20T12:02:37.076Z,36.15
2019-04-20T12:05:21.273Z,35.73
2019-04-20T12:07:58.752Z,35.86
2019-04-20T12:10:31.387Z,34.90
2019-04-20T12:13:03.693Z,34.96
2019-04-20T12:15:37.440Z,35.91
2019-04-20T12:18:07.653Z,35.42
2019-04-20T12:20:38.921Z,35.79
2019-04-20T12:23:10.547Z,35.46
2019-04-20T12:25:44.206Z,34.87
2019-04-20T12:28:14.145Z,35.05
2019-04-20T12:30:45.950Z,35.39
2019-04-20T12:33:17.790Z,34.99
2019-04-20T12:35:50.091Z,34.95
2019-04-20T12:38:21.103Z,34.99
2019-04-20T12:40:52.516Z,34.18
2019-04-20T12:43:23.691Z,34.88
2019-04-20T12:45:55.870Z,35.05
2019-04-20T12:48:26.870Z,35.26
2019-04-20T12:50:57.709Z,35.60
2019-04-20T12:53:28.662Z,35.10
2019-04-20T12:55:59.485Z,34.90
2019-04-20T12:58:30.582Z,35.07
2019-04-20T13:01:02.587Z,35.31
2019-04-20T13:03:33.488Z,35.00
2019-04-20T13:06:05.764Z,35.11
2019-04-20T13:08:42.176Z,35.23
2019-04-20T13:11:12.905Z,35.33
2019-04-20T13:13:52.502Z,35.26
2019-04-20T13:16:32.262Z,35.50
2019-04-20T13:19:03.519Z,35.37
2019-04-20T13:21:34.835Z,35.46
2019-04-20T13:24:07.006Z,35.47
2019-04-20T13:26:38.018Z,35.04
2019-04-20T13:29:08.913Z,35.52
2019-04-20T13:31:40.082Z,35.38
2019-04-20T13:34:10.916Z,35.31
2019-04-20T13:36:42.096Z,35.46
2019-04-20T13:39:14.300Z,35.52
2019-04-20T13:41:57.689Z,35.43
2019-04-20T13:44:17.966Z,35.90
2019-04-20T13:46:49.236Z,36.16
2019-04-20T13:49:20.825Z,36.20
2019-04-20T13:51:52.944Z,36.23
2019-04-20T13:54:26.410Z,36.29
2019-04-20T13:56:57.734Z,36.08
2019-04-20T13:59:33.909Z,36.22
2019-04-20T14:02:10.593Z,36.35
2019-04-20T14:04:44.500Z,36.52
2019-04-20T14:07:17.014Z,36.55
2019-04-20T14:09:48.132Z,36.39
2019-04-20T14:12:25.065Z,36.56
2019-04-20T14:14:51.460Z,36.43
2019-04-20T14:17:23.303Z,36.36
2019-04-20T14:19:54.854Z,36.33
2019-04-20T14:22:26.988Z,36.02
2019-04-20T14:24:58.172Z,35.56
2019-04-20T14:27:29.003Z,35.14
2019-04-20T14:30:01.199Z,35.47
2019-04-20T14:32:32.519Z,35.50
2019-04-20T14:35:04.986Z,35.84
2019-04-20T14:37:36.036Z,35.90
2019-04-20T14:40:08.720Z,35.69
2019-04-20T14:42:46.359Z,35.76
2019-04-20T14:45:14.531Z,35.96
2019-04-20T14:47:45.850Z,35.53
2019-04-20T14:50:20.019Z,34.23
2019-04-20T14:52:51.479Z,34.76
2019-04-20T14:55:22.912Z,35.06
2019-04-20T14:57:57.394Z,35.19
2019-04-20T15:00:42.048Z,35.01
2019-04-20T15:03:30.359Z,35.08
2019-04-20T15:06:03.112Z,35.14
2019-04-20T15:08:34.595Z,34.80
2019-04-20T15:11:07.179Z,34.74
2019-04-20T15:13:38.619Z,34.46
2019-04-20T15:16:10.865Z,34.23
2019-04-20T15:18:49.075Z,34.35
2019-04-20T15:21:21.680Z,34.65
2019-04-20T15:23:53.283Z,34.53
2019-04-20T15:26:24.493Z,33.84
2019-04-20T15:28:56.354Z,33.71
2019-04-20T15:31:28.193Z,32.96
2019-04-20T15:33:59.251Z,32.94
2019-04-20T15:36:29.992Z,32.91
2019-04-20T15:39:01.102Z,33.05
2019-04-20T15:41:31.701Z,32.67
2019-04-20T15:44:03.659Z,33.08
2019-04-20T15:46:35.281Z,32.33
2019-04-20T15:49:08.105Z,31.85
2019-04-20T15:51:39.781Z,31.71
2019-04-20T15:54:11.525Z,32.13
2019-04-20T15:56:52.468Z,31.92
2019-04-20T15:59:14.801Z,31.36
2019-04-20T16:01:47.181Z,31.36
2019-04-20T16:04:31.997Z,30.79
2019-04-20T16:06:59.156Z,31.18
2019-04-20T16:09:31.878Z,30.79
2019-04-20T16:12:02.727Z,30.37
2019-04-20T16:14:33.856Z,30.02
2019-04-20T16:17:07.434Z,29.18
2019-04-20T16:19:46.148Z,29.24
2019-04-20T16:22:10.100Z,28.75
2019-04-20T16:24:42.869Z,28.54
2019-04-20T16:27:27.753Z,28.84
2019-04-20T16:29:59.927Z,28.95
2019-04-20T16:32:32.309Z,29.23
2019-04-20T16:35:04.512Z,29.29
2019-04-20T16:37:35.762Z,30.03
2019-04-20T16:40:09.463Z,30.09
2019-04-20T16:42:42.260Z,30.33
2019-04-20T16:45:14.970Z,30.61
2019-04-20T16:47:46.303Z,31.02
2019-04-20T16:50:17.493Z,31.13
2019-04-20T16:52:48.836Z,31.48
2019-04-20T16:55:20.700Z,31.47
2019-04-20T16:57:52.928Z,31.30
2019-04-20T17:00:25.427Z,31.47
2019-04-20T17:02:56.516Z,31.74
2019-04-20T17:05:27.555Z,32.19
2019-04-20T17:08:00.903Z,32.32
2019-04-20T17:10:32.748Z,32.59
2019-04-20T17:13:04.135Z,32.87
2019-04-20T17:15:35.313Z,32.93
2019-04-20T17:18:05.855Z,32.93
2019-04-20T17:20:36.942Z,33.01
2019-04-20T17:23:09.187Z,33.36
2019-04-20T17:25:39.981Z,33.60
2019-04-20T17:28:29.041Z,33.63
2019-04-20T17:31:02.942Z,33.69
2019-04-20T17:33:52.401Z,33.79
2019-04-20T17:36:18.549Z,33.92
2019-04-20T17:38:50.402Z,33.88
2019-04-20T17:41:36.235Z,33.84
2019-04-20T17:44:05.994Z,34.01
2019-04-20T17:46:36.748Z,34.07
2019-04-20T17:49:09.092Z,34.07
2019-04-20T17:51:47.333Z,34.17
2019-04-20T17:54:08.430Z,34.50
2019-04-20T17:56:42.392Z,34.67
2019-04-20T17:59:14.334Z,34.87
2019-04-20T18:02:14.515Z,34.94
2019-04-20T18:05:02.399Z,35.26
2019-04-20T18:07:31.266Z,35.54
2019-04-20T18:09:58.617Z,35.78
2019-04-20T18:12:21.080Z,36.03
2019-04-20T18:14:58.058Z,36.20
2019-04-20T18:17:32.094Z,36.40
2019-04-20T18:19:54.547Z,36.61
2019-04-20T18:22:25.765Z,36.74
2019-04-20T18:25:20.906Z,37.00
2019-04-20T18:27:45.920Z,37.20
2019-04-20T18:30:19.143Z,37.23
2019-04-20T18:32:58.927Z,37.09
2019-04-20T18:35:34.770Z,37.28
2019-04-20T18:38:16.692Z,37.25
2019-04-20T18:40:48.343Z,37.24
2019-04-20T18:43:18.286Z,37.44
2019-04-20T18:46:03.846Z,37.51
2019-04-20T18:48:39.310Z,37.37
2019-04-20T18:50:50.040Z,37.30
2019-04-20T18:53:30.334Z,37.49
2019-04-20T18:55:57.149Z,37.46
2019-04-20T18:58:37.519Z,37.62
2019-04-20T19:01:07.855Z,37.49
2019-04-20T19:03:43.625Z,37.48
2019-04-20T19:06:12.345Z,37.38
2019-04-20T19:08:46.886Z,37.67
2019-04-20T19:11:19.546Z,37.57
2019-04-20T19:13:51.170Z,37.53
2019-04-20T19:16:33.410Z,37.53
2019-04-20T19:19:23.340Z,37.59
2019-04-20T19:21:45.963Z,37.46
2019-04-20T19:24:19.692Z,37.48
2019-04-20T19:26:55.646Z,37.57
2019-04-20T19:29:30.080Z,37.70
2019-04-20T19:32:14.318Z,38.20
2019-04-20T19:34:42.936Z,38.56
2019-04-20T19:37:13.727Z,39.16
2019-04-20T19:39:47.137Z,39.41
2019-04-20T19:42:20.353Z,39.74
2019-04-20T19:44:53.013Z,40.16
2019-04-20T19:47:31.221Z,40.07
2019-04-20T19:49:51.814Z,40.45
2019-04-20T19:52:44.414Z,40.42
2019-04-20T19:55:06.691Z,40.70
2019-04-20T19:57:39.815Z,40.83
2019-04-20T19:59:56.635Z,40.96
2019-04-20T20:02:27.708Z,41.04
2019-04-20T20:05:06.301Z,40.89
2019-04-20T20:07:37.993Z,40.95
2019-04-20T20:10:07.002Z,41.04
2019-04-20T20:12:39.261Z,40.83
2019-04-20T20:15:14.635Z,40.72
2019-04-20T20:18:00.711Z,40.85
2019-04-20T20:20:39.256Z,40.85
2019-04-20T20:22:50.480Z,41.13
2019-04-20T20:25:18.990Z,41.13
2019-04-20T20:27:57.805Z,41.54
2019-04-20T20:30:34.387Z,41.64
2019-04-20T20:33:11.532Z,41.83
2019-04-20T20:35:32.504Z,42.24
2019-04-20T20:38:08.160Z,42.43
2019-04-20T20:40:45.408Z,42.75
2019-04-20T20:43:18.384Z,42.87
2019-04-20T20:45:50.527Z,43.19
2019-04-20T20:48:29.751Z,43.60
2019-04-20T20:51:07.759Z,43.44
2019-04-20T20:53:35.327Z,43.85
2019-04-20T20:56:04.408Z,43.97
2019-04-20T20:58:40.274Z,43.97
2019-04-20T21:01:09.597Z,44.25
2019-04-20T21:03:40.379Z,44.37
2019-04-20T21:06:05.654Z,44.56
2019-04-20T21:08:45.920Z,44.71
2019-04-20T21:11:19.865Z,45.05
2019-04-20T21:13:47.274Z,44.84
2019-04-20T21:16:23.333Z,44.99
2019-04-20T21:19:05.594Z,45.06
2019-04-20T21:21:42.258Z,45.34
2019-04-20T21:24:17.796Z,45.05
2019-04-20T21:26:47.724Z,45.03
2019-04-20T21:29:27.396Z,45.18
2019-04-20T21:32:01.601Z,45.73
2019-04-20T21:34:25.665Z,45.88
2019-04-20T21:37:03.516Z,46.25
2019-04-20T21:39:40.993Z,46.31
2019-04-20T21:42:13.777Z,46.16
2019-04-20T21:44:42.896Z,46.32
2019-04-20T21:47:14.491Z,46.34
2019-04-20T21:49:56.891Z,46.28
2019-04-20T21:52:24.837Z,46.10
2019-04-20T21:54:49.905Z,46.65
2019-04-20T21:57:22.086Z,46.37
2019-04-20T21:59:55.858Z,46.65
2019-04-20T22:02:30.668Z,46.77
2019-04-20T22:04:58.008Z,46.92
2019-04-20T22:07:28.726Z,46.66
2019-04-20T22:10:00.306Z,47.02
2019-04-20T22:12:39.720Z,47.11
2019-04-20T22:15:17.335Z,47.37
2019-04-20T22:17:41.130Z,47.32
2019-04-20T22:20:23.487Z,47.50
2019-04-20T22:23:00.850Z,47.58
2019-04-20T22:25:37.324Z,47.31
2019-04-20T22:27:50.595Z,47.60
2019-04-20T22:30:22.083Z,47.42
2019-04-20T22:32:55.292Z,47.42
2019-04-20T22:35:28.232Z,47.72
2019-04-20T22:38:12.558Z,47.44
2019-04-20T22:40:42.847Z,47.26
2019-04-20T22:43:19.152Z,47.50
2019-04-20T22:45:50.615Z,47.28
2019-04-20T22:48:20.849Z,47.03
2019-04-20T22:51:12.760Z,47.11
